Elma, Iowa
Current Conditions -  °F | °C
As of 7:15 PM on Saturday 20 Dec 2014 (Local Time) from KCCY Reporting Station
Haze Haze  
Wind Chill: 26°   Ceiling: 1800
Heat Index: 32°   Visibility: 4mi
Dew Point: 32°   Wind: 7mph
Humidity: 100%   Direction: 140°SE
Pressure: 30.15"   Gusts: NA
Location:  43.25°N, 92.44°W
Report Text: KCCY 210115Z AUTO 14006KT 4SM BR OVC018 M00/M00 A3015 RMK AO2
Loading
Personal Weather Stations






























Interactive Weather Map New forecast layout! Learn more

10-Day Weather Forecast

Advertisements
Track Severe Weather on mobile